sensor_id;sensor_type;location;lat;lon;timestamp;temperature;humidity
23681;DHT22;62915;50.832;4.462;2022-11-13T00:00:54;16.60;99.90
23681;DHT22;62915;50.832;4.462;2022-11-13T00:03:20;16.60;99.90
23681;DHT22;62915;50.832;4.462;2022-11-13T00:05:45;16.60;99.90
23681;DHT22;62915;50.832;4.462;2022-11-13T00:08:11;16.60;99.90
23681;DHT22;62915;50.832;4.462;2022-11-13T00:10:37;16.60;99.90
23681;DHT22;62915;50.832;4.462;2022-11-13T00:13:03;16.60;99.90
23681;DHT22;62915;50.832;4.462;2022-11-13T00:15:28;16.60;99.90
23681;DHT22;62915;50.832;4.462;2022-11-13T00:17:54;16.60;99.90
23681;DHT22;62915;50.832;4.462;2022-11-13T00:20:20;16.60;99.90
23681;DHT22;62915;50.832;4.462;2022-11-13T00:22:45;16.60;99.90
23681;DHT22;62915;50.832;4.462;2022-11-13T00:25:11;16.60;99.90
23681;DHT22;62915;50.832;4.462;2022-11-13T00:27:37;16.60;99.90
23681;DHT22;62915;50.832;4.462;2022-11-13T00:30:04;16.60;99.90
23681;DHT22;62915;50.832;4.462;2022-11-13T00:32:30;16.60;99.90
23681;DHT22;62915;50.832;4.462;2022-11-13T00:34:55;16.60;99.90
23681;DHT22;62915;50.832;4.462;2022-11-13T00:37:21;16.60;99.90
23681;DHT22;62915;50.832;4.462;2022-11-13T00:39:47;16.60;99.90
23681;DHT22;62915;50.832;4.462;2022-11-13T00:42:12;16.60;99.90
23681;DHT22;62915;50.832;4.462;2022-11-13T00:44:38;16.50;99.90
23681;DHT22;62915;50.832;4.462;2022-11-13T00:47:04;16.50;99.90
23681;DHT22;62915;50.832;4.462;2022-11-13T00:49:31;16.60;99.90
23681;DHT22;62915;50.832;4.462;2022-11-13T00:51:57;16.50;99.90
23681;DHT22;62915;50.832;4.462;2022-11-13T00:54:24;16.50;99.90
23681;DHT22;62915;50.832;4.462;2022-11-13T00:56:50;16.50;99.90
23681;DHT22;62915;50.832;4.462;2022-11-13T00:59:16;16.50;99.90
23681;DHT22;62915;50.832;4.462;2022-11-13T01:01:41;16.50;99.90
23681;DHT22;62915;50.832;4.462;2022-11-13T01:04:07;16.50;99.90
23681;DHT22;62915;50.832;4.462;2022-11-13T01:06:33;16.50;99.90
23681;DHT22;62915;50.832;4.462;2022-11-13T01:08:58;16.50;99.90
23681;DHT22;62915;50.832;4.462;2022-11-13T01:11:27;16.50;99.90
23681;DHT22;62915;50.832;4.462;2022-11-13T01:13:54;16.50;99.90
23681;DHT22;62915;50.832;4.462;2022-11-13T01:16:22;16.60;99.90
23681;DHT22;62915;50.832;4.462;2022-11-13T01:18:49;16.50;99.90
23681;DHT22;62915;50.832;4.462;2022-11-13T01:21:18;16.50;99.90
23681;DHT22;62915;50.832;4.462;2022-11-13T01:23:44;16.50;99.90
23681;DHT22;62915;50.832;4.462;2022-11-13T01:26:25;16.50;99.90
23681;DHT22;62915;50.832;4.462;2022-11-13T01:28:52;16.50;99.90
23681;DHT22;62915;50.832;4.462;2022-11-13T01:31:21;16.50;99.90
23681;DHT22;62915;50.832;4.462;2022-11-13T01:33:48;16.50;99.90
23681;DHT22;62915;50.832;4.462;2022-11-13T01:36:17;16.50;99.90
23681;DHT22;62915;50.832;4.462;2022-11-13T01:38:44;16.50;99.90
23681;DHT22;62915;50.832;4.462;2022-11-13T01:41:28;16.50;99.90
23681;DHT22;62915;50.832;4.462;2022-11-13T01:43:55;16.50;99.90
23681;DHT22;62915;50.832;4.462;2022-11-13T01:46:29;16.50;99.90
23681;DHT22;62915;50.832;4.462;2022-11-13T01:51:38;16.40;99.90
23681;DHT22;62915;50.832;4.462;2022-11-13T01:54:07;16.50;99.90
23681;DHT22;62915;50.832;4.462;2022-11-13T01:56:34;16.50;99.90
23681;DHT22;62915;50.832;4.462;2022-11-13T01:59:19;16.50;99.90
23681;DHT22;62915;50.832;4.462;2022-11-13T02:01:46;16.50;99.90
23681;DHT22;62915;50.832;4.462;2022-11-13T02:04:12;16.50;99.90
23681;DHT22;62915;50.832;4.462;2022-11-13T02:06:51;16.50;99.90
23681;DHT22;62915;50.832;4.462;2022-11-13T02:09:21;16.50;99.90
23681;DHT22;62915;50.832;4.462;2022-11-13T02:11:49;16.50;99.90
23681;DHT22;62915;50.832;4.462;2022-11-13T02:14:16;16.40;99.90
23681;DHT22;62915;50.832;4.462;2022-11-13T02:16:46;16.40;99.90
23681;DHT22;62915;50.832;4.462;2022-11-13T02:19:24;16.40;99.90
23681;DHT22;62915;50.832;4.462;2022-11-13T02:22:47;16.50;99.90
23681;DHT22;62915;50.832;4.462;2022-11-13T02:24:46;16.40;99.90
23681;DHT22;62915;50.832;4.462;2022-11-13T02:27:29;16.40;99.90
23681;DHT22;62915;50.832;4.462;2022-11-13T02:29:56;16.40;99.90
23681;DHT22;62915;50.832;4.462;2022-11-13T02:32:22;16.40;99.90
23681;DHT22;62915;50.832;4.462;2022-11-13T02:34:47;16.40;99.90
23681;DHT22;62915;50.832;4.462;2022-11-13T02:37:13;16.40;99.90
23681;DHT22;62915;50.832;4.462;2022-11-13T02:39:39;16.40;99.90
23681;DHT22;62915;50.832;4.462;2022-11-13T02:42:05;16.40;99.90
23681;DHT22;62915;50.832;4.462;2022-11-13T02:44:31;16.40;99.90
23681;DHT22;62915;50.832;4.462;2022-11-13T02:46:56;16.40;99.90
23681;DHT22;62915;50.832;4.462;2022-11-13T02:49:22;16.40;99.90
23681;DHT22;62915;50.832;4.462;2022-11-13T02:51:48;16.40;99.90
23681;DHT22;62915;50.832;4.462;2022-11-13T02:54:14;16.40;99.90
23681;DHT22;62915;50.832;4.462;2022-11-13T02:56:39;16.40;99.90
23681;DHT22;62915;50.832;4.462;2022-11-13T02:59:05;16.40;99.90
23681;DHT22;62915;50.832;4.462;2022-11-13T03:01:31;16.40;99.90
23681;DHT22;62915;50.832;4.462;2022-11-13T03:03:56;16.40;99.90
23681;DHT22;62915;50.832;4.462;2022-11-13T03:06:22;16.40;99.90
23681;DHT22;62915;50.832;4.462;2022-11-13T03:08:48;16.40;99.90
23681;DHT22;62915;50.832;4.462;2022-11-13T03:11:13;16.40;99.90
23681;DHT22;62915;50.832;4.462;2022-11-13T03:13:39;16.40;99.90
23681;DHT22;62915;50.832;4.462;2022-11-13T03:16:10;16.40;99.90
23681;DHT22;62915;50.832;4.462;2022-11-13T03:18:36;16.40;99.90
23681;DHT22;62915;50.832;4.462;2022-11-13T03:21:11;16.30;99.90
23681;DHT22;62915;50.832;4.462;2022-11-13T03:23:38;16.40;99.90
23681;DHT22;62915;50.832;4.462;2022-11-13T03:26:09;16.40;99.90
23681;DHT22;62915;50.832;4.462;2022-11-13T03:28:35;16.40;99.90
23681;DHT22;62915;50.832;4.462;2022-11-13T03:31:02;16.40;99.90
23681;DHT22;62915;50.832;4.462;2022-11-13T03:33:28;16.40;99.90
23681;DHT22;62915;50.832;4.462;2022-11-13T03:35:54;16.30;99.90
23681;DHT22;62915;50.832;4.462;2022-11-13T03:38:20;16.40;99.90
23681;DHT22;62915;50.832;4.462;2022-11-13T03:40:46;16.30;99.90
23681;DHT22;62915;50.832;4.462;2022-11-13T03:43:12;16.30;99.90
23681;DHT22;62915;50.832;4.462;2022-11-13T03:45:37;16.30;99.90
23681;DHT22;62915;50.832;4.462;2022-11-13T03:48:04;16.30;99.90
23681;DHT22;62915;50.832;4.462;2022-11-13T03:50:30;16.30;99.90
23681;DHT22;62915;50.832;4.462;2022-11-13T03:52:55;16.30;99.90
23681;DHT22;62915;50.832;4.462;2022-11-13T03:55:21;16.30;99.90
23681;DHT22;62915;50.832;4.462;2022-11-13T03:57:47;16.30;99.90
23681;DHT22;62915;50.832;4.462;2022-11-13T04:00:13;16.30;99.90
23681;DHT22;62915;50.832;4.462;2022-11-13T04:02:39;16.30;99.90
23681;DHT22;62915;50.832;4.462;2022-11-13T04:05:07;16.30;99.90
23681;DHT22;62915;50.832;4.462;2022-11-13T04:07:33;16.30;99.90
23681;DHT22;62915;50.832;4.462;2022-11-13T04:09:58;16.30;99.90
23681;DHT22;62915;50.832;4.462;2022-11-13T04:12:24;16.30;99.90
23681;DHT22;62915;50.832;4.462;2022-11-13T04:14:50;16.30;99.90
23681;DHT22;62915;50.832;4.462;2022-11-13T04:17:16;16.30;99.90
23681;DHT22;62915;50.832;4.462;2022-11-13T04:19:41;16.30;99.90
23681;DHT22;62915;50.832;4.462;2022-11-13T04:22:07;16.30;99.90
23681;DHT22;62915;50.832;4.462;2022-11-13T04:24:33;16.30;99.90
23681;DHT22;62915;50.832;4.462;2022-11-13T04:26:58;16.30;99.90
23681;DHT22;62915;50.832;4.462;2022-11-13T04:29:24;16.30;99.90
23681;DHT22;62915;50.832;4.462;2022-11-13T04:31:50;16.30;99.90
23681;DHT22;62915;50.832;4.462;2022-11-13T04:34:15;16.30;99.90
23681;DHT22;62915;50.832;4.462;2022-11-13T04:36:41;16.30;99.90
23681;DHT22;62915;50.832;4.462;2022-11-13T04:39:07;16.30;99.90
23681;DHT22;62915;50.832;4.462;2022-11-13T04:41:33;16.30;99.90
23681;DHT22;62915;50.832;4.462;2022-11-13T04:44:17;16.30;99.90
23681;DHT22;62915;50.832;4.462;2022-11-13T04:46:43;16.30;99.90
23681;DHT22;62915;50.832;4.462;2022-11-13T04:49:08;16.30;99.90
23681;DHT22;62915;50.832;4.462;2022-11-13T04:51:34;16.30;99.90
23681;DHT22;62915;50.832;4.462;2022-11-13T04:54:00;16.20;99.90
23681;DHT22;62915;50.832;4.462;2022-11-13T04:56:26;16.20;99.90
23681;DHT22;62915;50.832;4.462;2022-11-13T04:58:51;16.20;99.90
23681;DHT22;62915;50.832;4.462;2022-11-13T05:01:17;16.20;99.90
23681;DHT22;62915;50.832;4.462;2022-11-13T05:03:43;16.20;99.90
23681;DHT22;62915;50.832;4.462;2022-11-13T05:06:09;16.20;99.90
23681;DHT22;62915;50.832;4.462;2022-11-13T05:08:35;16.20;99.90
23681;DHT22;62915;50.832;4.462;2022-11-13T05:11:02;16.20;99.90
23681;DHT22;62915;50.832;4.462;2022-11-13T05:13:35;16.20;99.90
23681;DHT22;62915;50.832;4.462;2022-11-13T05:16:10;16.20;99.90
23681;DHT22;62915;50.832;4.462;2022-11-13T05:18:37;16.20;99.90
23681;DHT22;62915;50.832;4.462;2022-11-13T05:21:05;16.20;99.90
23681;DHT22;62915;50.832;4.462;2022-11-13T05:23:32;16.20;99.90
23681;DHT22;62915;50.832;4.462;2022-11-13T05:26:06;16.20;99.90
23681;DHT22;62915;50.832;4.462;2022-11-13T05:28:32;16.20;99.90
23681;DHT22;62915;50.832;4.462;2022-11-13T05:31:03;16.20;99.90
23681;DHT22;62915;50.832;4.462;2022-11-13T05:33:29;16.20;99.90
23681;DHT22;62915;50.832;4.462;2022-11-13T05:36:02;16.20;99.90
23681;DHT22;62915;50.832;4.462;2022-11-13T05:38:29;16.20;99.90
23681;DHT22;62915;50.832;4.462;2022-11-13T05:40:59;16.20;99.90
23681;DHT22;62915;50.832;4.462;2022-11-13T05:43:25;16.20;99.90
23681;DHT22;62915;50.832;4.462;2022-11-13T05:45:50;16.10;99.90
23681;DHT22;62915;50.832;4.462;2022-11-13T05:48:16;16.20;99.90
23681;DHT22;62915;50.832;4.462;2022-11-13T05:50:42;16.20;99.90
23681;DHT22;62915;50.832;4.462;2022-11-13T05:53:07;16.10;99.90
23681;DHT22;62915;50.832;4.462;2022-11-13T05:55:33;16.20;99.90
23681;DHT22;62915;50.832;4.462;2022-11-13T05:57:59;16.10;99.90
23681;DHT22;62915;50.832;4.462;2022-11-13T06:00:25;16.10;99.90
23681;DHT22;62915;50.832;4.462;2022-11-13T06:02:50;16.20;99.90
23681;DHT22;62915;50.832;4.462;2022-11-13T06:05:16;16.10;99.90
23681;DHT22;62915;50.832;4.462;2022-11-13T06:07:42;16.10;99.90
23681;DHT22;62915;50.832;4.462;2022-11-13T06:10:08;16.10;99.90
23681;DHT22;62915;50.832;4.462;2022-11-13T06:12:33;16.10;99.90
23681;DHT22;62915;50.832;4.462;2022-11-13T06:14:59;16.10;99.90
23681;DHT22;62915;50.832;4.462;2022-11-13T06:17:25;16.10;99.90
23681;DHT22;62915;50.832;4.462;2022-11-13T06:19:50;16.10;99.90
23681;DHT22;62915;50.832;4.462;2022-11-13T06:22:16;16.10;99.90
23681;DHT22;62915;50.832;4.462;2022-11-13T06:24:42;16.10;99.90
23681;DHT22;62915;50.832;4.462;2022-11-13T06:27:07;16.10;99.90
23681;DHT22;62915;50.832;4.462;2022-11-13T06:29:33;16.10;99.90
23681;DHT22;62915;50.832;4.462;2022-11-13T06:31:59;16.10;99.90
23681;DHT22;62915;50.832;4.462;2022-11-13T06:34:24;16.10;99.90
23681;DHT22;62915;50.832;4.462;2022-11-13T06:36:50;16.10;99.90
23681;DHT22;62915;50.832;4.462;2022-11-13T06:39:16;16.10;99.90
23681;DHT22;62915;50.832;4.462;2022-11-13T06:41:42;16.10;99.90
23681;DHT22;62915;50.832;4.462;2022-11-13T06:44:07;16.10;99.90
23681;DHT22;62915;50.832;4.462;2022-11-13T06:46:33;15.90;99.90
23681;DHT22;62915;50.832;4.462;2022-11-13T06:48:59;15.80;99.90
23681;DHT22;62915;50.832;4.462;2022-11-13T06:51:29;15.70;99.90
23681;DHT22;62915;50.832;4.462;2022-11-13T06:53:55;15.60;99.90
23681;DHT22;62915;50.832;4.462;2022-11-13T06:56:21;15.60;99.90
23681;DHT22;62915;50.832;4.462;2022-11-13T06:58:47;15.50;99.90
23681;DHT22;62915;50.832;4.462;2022-11-13T07:01:16;15.50;99.90
23681;DHT22;62915;50.832;4.462;2022-11-13T07:03:42;15.60;99.90
23681;DHT22;62915;50.832;4.462;2022-11-13T07:06:11;15.60;99.90
23681;DHT22;62915;50.832;4.462;2022-11-13T07:08:39;15.70;99.90
23681;DHT22;62915;50.832;4.462;2022-11-13T07:11:06;15.70;99.90
23681;DHT22;62915;50.832;4.462;2022-11-13T07:13:33;15.70;99.90
23681;DHT22;62915;50.832;4.462;2022-11-13T07:16:02;15.70;99.90
23681;DHT22;62915;50.832;4.462;2022-11-13T07:18:29;15.70;99.90
23681;DHT22;62915;50.832;4.462;2022-11-13T07:20:55;15.70;99.90
23681;DHT22;62915;50.832;4.462;2022-11-13T07:23:21;15.70;99.90
23681;DHT22;62915;50.832;4.462;2022-11-13T07:25:48;15.70;99.90
23681;DHT22;62915;50.832;4.462;2022-11-13T07:28:14;15.70;99.90
23681;DHT22;62915;50.832;4.462;2022-11-13T07:30:39;15.70;99.90
23681;DHT22;62915;50.832;4.462;2022-11-13T07:33:05;15.70;99.90
23681;DHT22;62915;50.832;4.462;2022-11-13T07:35:31;15.70;99.90
23681;DHT22;62915;50.832;4.462;2022-11-13T07:37:57;15.80;99.90
23681;DHT22;62915;50.832;4.462;2022-11-13T07:40:23;15.80;99.90
23681;DHT22;62915;50.832;4.462;2022-11-13T07:42:59;15.80;99.90
23681;DHT22;62915;50.832;4.462;2022-11-13T07:45:25;15.80;99.90
23681;DHT22;62915;50.832;4.462;2022-11-13T07:47:57;15.80;99.90
23681;DHT22;62915;50.832;4.462;2022-11-13T07:50:24;15.80;99.90
23681;DHT22;62915;50.832;4.462;2022-11-13T07:52:57;15.80;99.90
23681;DHT22;62915;50.832;4.462;2022-11-13T07:55:23;15.80;99.90
23681;DHT22;62915;50.832;4.462;2022-11-13T07:57:49;15.80;99.90
23681;DHT22;62915;50.832;4.462;2022-11-13T08:00:15;15.80;99.90
23681;DHT22;62915;50.832;4.462;2022-11-13T08:02:41;15.80;99.90
23681;DHT22;62915;50.832;4.462;2022-11-13T08:05:07;15.80;99.90
23681;DHT22;62915;50.832;4.462;2022-11-13T08:07:34;15.80;99.90
23681;DHT22;62915;50.832;4.462;2022-11-13T08:09:59;15.80;99.90
23681;DHT22;62915;50.832;4.462;2022-11-13T08:12:25;15.70;99.90
23681;DHT22;62915;50.832;4.462;2022-11-13T08:14:51;15.80;99.90
23681;DHT22;62915;50.832;4.462;2022-11-13T08:17:16;15.80;99.90
23681;DHT22;62915;50.832;4.462;2022-11-13T08:19:42;15.80;99.90
23681;DHT22;62915;50.832;4.462;2022-11-13T08:22:08;15.80;99.90
23681;DHT22;62915;50.832;4.462;2022-11-13T08:24:33;15.80;99.90
23681;DHT22;62915;50.832;4.462;2022-11-13T08:26:59;15.80;99.90
23681;DHT22;62915;50.832;4.462;2022-11-13T08:29:25;15.80;99.90
23681;DHT22;62915;50.832;4.462;2022-11-13T08:31:50;15.80;99.90
23681;DHT22;62915;50.832;4.462;2022-11-13T08:34:16;15.80;99.90
23681;DHT22;62915;50.832;4.462;2022-11-13T08:36:42;15.70;99.90
23681;DHT22;62915;50.832;4.462;2022-11-13T08:39:08;15.80;99.90
23681;DHT22;62915;50.832;4.462;2022-11-13T08:41:34;15.80;99.90
23681;DHT22;62915;50.832;4.462;2022-11-13T08:43:59;15.80;99.90
23681;DHT22;62915;50.832;4.462;2022-11-13T08:46:25;15.80;99.90
23681;DHT22;62915;50.832;4.462;2022-11-13T08:48:51;15.80;99.90
23681;DHT22;62915;50.832;4.462;2022-11-13T08:51:17;15.80;99.90
23681;DHT22;62915;50.832;4.462;2022-11-13T08:53:42;15.80;99.90
23681;DHT22;62915;50.832;4.462;2022-11-13T08:56:08;15.80;99.90
23681;DHT22;62915;50.832;4.462;2022-11-13T08:58:34;15.90;99.90
23681;DHT22;62915;50.832;4.462;2022-11-13T09:01:00;15.90;99.90
23681;DHT22;62915;50.832;4.462;2022-11-13T09:03:26;15.90;99.90
23681;DHT22;62915;50.832;4.462;2022-11-13T09:05:52;15.90;99.90
23681;DHT22;62915;50.832;4.462;2022-11-13T09:08:18;15.90;99.90
23681;DHT22;62915;50.832;4.462;2022-11-13T09:10:43;16.00;99.90
23681;DHT22;62915;50.832;4.462;2022-11-13T09:13:09;16.10;99.90
23681;DHT22;62915;50.832;4.462;2022-11-13T09:15:37;16.20;99.90
23681;DHT22;62915;50.832;4.462;2022-11-13T09:18:04;16.30;99.90
23681;DHT22;62915;50.832;4.462;2022-11-13T09:20:31;16.40;99.90
23681;DHT22;62915;50.832;4.462;2022-11-13T09:23:02;16.50;99.90
23681;DHT22;62915;50.832;4.462;2022-11-13T09:25:29;16.50;99.90
23681;DHT22;62915;50.832;4.462;2022-11-13T09:27:58;16.60;99.90
23681;DHT22;62915;50.832;4.462;2022-11-13T09:30:24;16.70;99.90
23681;DHT22;62915;50.832;4.462;2022-11-13T09:32:55;16.80;99.90
23681;DHT22;62915;50.832;4.462;2022-11-13T09:35:23;16.80;99.90
23681;DHT22;62915;50.832;4.462;2022-11-13T09:38:01;16.90;99.90
23681;DHT22;62915;50.832;4.462;2022-11-13T09:43:54;17.60;99.90
23681;DHT22;62915;50.832;4.462;2022-11-13T09:49:15;18.10;99.90
23681;DHT22;62915;50.832;4.462;2022-11-13T09:51:49;18.00;99.90
23681;DHT22;62915;50.832;4.462;2022-11-13T09:54:15;18.30;99.90
23681;DHT22;62915;50.832;4.462;2022-11-13T09:57:02;18.30;99.90
23681;DHT22;62915;50.832;4.462;2022-11-13T09:59:55;18.30;99.90
23681;DHT22;62915;50.832;4.462;2022-11-13T10:07:41;18.70;99.90
23681;DHT22;62915;50.832;4.462;2022-11-13T10:12:51;18.90;99.90
23681;DHT22;62915;50.832;4.462;2022-11-13T10:15:19;18.80;99.90
23681;DHT22;62915;50.832;4.462;2022-11-13T10:17:51;19.10;99.90
23681;DHT22;62915;50.832;4.462;2022-11-13T10:23:11;19.30;99.90
23681;DHT22;62915;50.832;4.462;2022-11-13T10:25:39;19.60;99.90
23681;DHT22;62915;50.832;4.462;2022-11-13T10:28:21;19.80;99.90
23681;DHT22;62915;50.832;4.462;2022-11-13T10:30:48;19.70;99.90
23681;DHT22;62915;50.832;4.462;2022-11-13T10:33:19;20.00;99.90
23681;DHT22;62915;50.832;4.462;2022-11-13T10:41:12;20.10;99.90
23681;DHT22;62915;50.832;4.462;2022-11-13T10:43:51;20.30;99.90
23681;DHT22;62915;50.832;4.462;2022-11-13T10:46:24;20.30;99.90
23681;DHT22;62915;50.832;4.462;2022-11-13T10:48:51;20.20;99.90
23681;DHT22;62915;50.832;4.462;2022-11-13T10:53:50;20.00;99.90
23681;DHT22;62915;50.832;4.462;2022-11-13T10:56:34;20.10;99.90
23681;DHT22;62915;50.832;4.462;2022-11-13T11:01:26;20.00;99.90
23681;DHT22;62915;50.832;4.462;2022-11-13T11:03:52;20.00;99.90
23681;DHT22;62915;50.832;4.462;2022-11-13T11:06:18;20.00;99.90
23681;DHT22;62915;50.832;4.462;2022-11-13T11:08:43;20.00;99.90
23681;DHT22;62915;50.832;4.462;2022-11-13T11:11:15;20.00;99.90
23681;DHT22;62915;50.832;4.462;2022-11-13T11:14:21;20.00;99.90
23681;DHT22;62915;50.832;4.462;2022-11-13T11:16:51;20.10;99.90
23681;DHT22;62915;50.832;4.462;2022-11-13T11:19:20;20.10;99.90
23681;DHT22;62915;50.832;4.462;2022-11-13T11:21:50;20.00;99.90
23681;DHT22;62915;50.832;4.462;2022-11-13T11:24:27;19.90;99.90
23681;DHT22;62915;50.832;4.462;2022-11-13T11:27:08;19.90;99.90
23681;DHT22;62915;50.832;4.462;2022-11-13T11:30:01;19.50;99.90
23681;DHT22;62915;50.832;4.462;2022-11-13T11:32:35;19.30;99.90
23681;DHT22;62915;50.832;4.462;2022-11-13T11:35:21;19.00;99.90
23681;DHT22;62915;50.832;4.462;2022-11-13T11:40:49;18.30;99.90
23681;DHT22;62915;50.832;4.462;2022-11-13T11:45:48;17.80;99.90
23681;DHT22;62915;50.832;4.462;2022-11-13T11:48:20;17.50;99.90
23681;DHT22;62915;50.832;4.462;2022-11-13T11:51:25;17.30;99.90
23681;DHT22;62915;50.832;4.462;2022-11-13T11:56:49;16.80;99.90
23681;DHT22;62915;50.832;4.462;2022-11-13T11:59:21;16.70;99.90
23681;DHT22;62915;50.832;4.462;2022-11-13T12:13:25;16.00;99.90
23681;DHT22;62915;50.832;4.462;2022-11-13T12:21:21;15.80;99.90
23681;DHT22;62915;50.832;4.462;2022-11-13T12:35:20;15.50;99.90
23681;DHT22;62915;50.832;4.462;2022-11-13T12:43:42;15.60;99.90
23681;DHT22;62915;50.832;4.462;2022-11-13T12:46:12;15.60;99.90
23681;DHT22;62915;50.832;4.462;2022-11-13T12:48:45;15.60;99.90
23681;DHT22;62915;50.832;4.462;2022-11-13T12:51:16;15.50;99.90
23681;DHT22;62915;50.832;4.462;2022-11-13T12:53:51;15.60;99.90
23681;DHT22;62915;50.832;4.462;2022-11-13T12:58:55;15.60;99.90
23681;DHT22;62915;50.832;4.462;2022-11-13T13:01:22;15.50;99.90
23681;DHT22;62915;50.832;4.462;2022-11-13T13:07:12;15.50;99.90
23681;DHT22;62915;50.832;4.462;2022-11-13T13:15:21;15.60;99.90
23681;DHT22;62915;50.832;4.462;2022-11-13T13:20:39;15.60;99.90
23681;DHT22;62915;50.832;4.462;2022-11-13T13:23:10;15.70;99.90
23681;DHT22;62915;50.832;4.462;2022-11-13T13:25:37;15.80;99.90
23681;DHT22;62915;50.832;4.462;2022-11-13T13:30:44;15.80;99.90
23681;DHT22;62915;50.832;4.462;2022-11-13T13:45:28;15.80;99.90
23681;DHT22;62915;50.832;4.462;2022-11-13T13:47:58;15.80;99.90
23681;DHT22;62915;50.832;4.462;2022-11-13T13:50:31;15.80;99.90
23681;DHT22;62915;50.832;4.462;2022-11-13T13:53:02;15.80;99.90
23681;DHT22;62915;50.832;4.462;2022-11-13T13:55:34;15.80;99.90
23681;DHT22;62915;50.832;4.462;2022-11-13T13:58:03;15.90;99.90
23681;DHT22;62915;50.832;4.462;2022-11-13T14:00:31;15.90;99.90
23681;DHT22;62915;50.832;4.462;2022-11-13T14:02:58;16.00;99.90
23681;DHT22;62915;50.832;4.462;2022-11-13T14:05:25;16.00;99.90
23681;DHT22;62915;50.832;4.462;2022-11-13T14:07:51;16.10;99.90
23681;DHT22;62915;50.832;4.462;2022-11-13T14:10:19;16.10;99.90
23681;DHT22;62915;50.832;4.462;2022-11-13T14:12:45;16.10;99.90
23681;DHT22;62915;50.832;4.462;2022-11-13T14:15:31;16.10;99.90
23681;DHT22;62915;50.832;4.462;2022-11-13T14:18:15;16.10;99.90
23681;DHT22;62915;50.832;4.462;2022-11-13T14:20:53;16.10;99.90
23681;DHT22;62915;50.832;4.462;2022-11-13T14:23:30;16.00;99.90
23681;DHT22;62915;50.832;4.462;2022-11-13T14:25:57;16.00;99.90
23681;DHT22;62915;50.832;4.462;2022-11-13T14:28:25;15.90;99.90
23681;DHT22;62915;50.832;4.462;2022-11-13T14:30:54;15.90;99.90
23681;DHT22;62915;50.832;4.462;2022-11-13T14:33:24;15.90;99.90
23681;DHT22;62915;50.832;4.462;2022-11-13T14:35:54;16.00;99.90
23681;DHT22;62915;50.832;4.462;2022-11-13T14:38:22;15.90;99.90
23681;DHT22;62915;50.832;4.462;2022-11-13T14:40:50;15.90;99.90
23681;DHT22;62915;50.832;4.462;2022-11-13T14:43:20;15.80;99.90
23681;DHT22;62915;50.832;4.462;2022-11-13T14:46:02;15.80;99.90
23681;DHT22;62915;50.832;4.462;2022-11-13T14:48:30;15.90;99.90
23681;DHT22;62915;50.832;4.462;2022-11-13T14:50:59;15.90;99.90
23681;DHT22;62915;50.832;4.462;2022-11-13T14:55:54;15.70;99.90
23681;DHT22;62915;50.832;4.462;2022-11-13T14:58:31;15.70;99.90
23681;DHT22;62915;50.832;4.462;2022-11-13T15:01:03;15.60;99.90
23681;DHT22;62915;50.832;4.462;2022-11-13T15:03:35;15.50;99.90
23681;DHT22;62915;50.832;4.462;2022-11-13T15:06:01;15.40;99.90
23681;DHT22;62915;50.832;4.462;2022-11-13T15:08:28;15.40;99.90
23681;DHT22;62915;50.832;4.462;2022-11-13T15:10:56;15.30;99.90
23681;DHT22;62915;50.832;4.462;2022-11-13T15:13:21;15.20;99.90
23681;DHT22;62915;50.832;4.462;2022-11-13T15:15:50;15.20;99.90
23681;DHT22;62915;50.832;4.462;2022-11-13T15:18:18;15.20;99.90
23681;DHT22;62915;50.832;4.462;2022-11-13T15:20:44;15.10;99.90
23681;DHT22;62915;50.832;4.462;2022-11-13T15:23:14;15.00;99.90
23681;DHT22;62915;50.832;4.462;2022-11-13T15:25:41;15.00;99.90
23681;DHT22;62915;50.832;4.462;2022-11-13T15:28:07;14.90;99.90
23681;DHT22;62915;50.832;4.462;2022-11-13T15:30:33;14.90;99.90
23681;DHT22;62915;50.832;4.462;2022-11-13T15:32:59;14.80;99.90
23681;DHT22;62915;50.832;4.462;2022-11-13T15:35:25;14.70;99.90
23681;DHT22;62915;50.832;4.462;2022-11-13T15:37:51;14.70;99.90
23681;DHT22;62915;50.832;4.462;2022-11-13T15:40:17;14.60;99.90
23681;DHT22;62915;50.832;4.462;2022-11-13T15:42:43;14.50;99.90
23681;DHT22;62915;50.832;4.462;2022-11-13T15:45:13;14.50;99.90
23681;DHT22;62915;50.832;4.462;2022-11-13T15:47:39;14.40;99.90
23681;DHT22;62915;50.832;4.462;2022-11-13T15:50:05;14.40;99.90
23681;DHT22;62915;50.832;4.462;2022-11-13T15:52:35;14.30;99.90
23681;DHT22;62915;50.832;4.462;2022-11-13T15:55:29;14.20;99.90
23681;DHT22;62915;50.832;4.462;2022-11-13T15:57:55;14.20;99.90
23681;DHT22;62915;50.832;4.462;2022-11-13T16:00:24;14.10;99.90
23681;DHT22;62915;50.832;4.462;2022-11-13T16:02:52;14.10;99.90
23681;DHT22;62915;50.832;4.462;2022-11-13T16:05:20;14.00;99.90
23681;DHT22;62915;50.832;4.462;2022-11-13T16:07:50;14.00;99.90
23681;DHT22;62915;50.832;4.462;2022-11-13T16:10:17;13.90;99.90
23681;DHT22;62915;50.832;4.462;2022-11-13T16:12:43;13.90;99.90
23681;DHT22;62915;50.832;4.462;2022-11-13T16:15:15;13.80;99.90
23681;DHT22;62915;50.832;4.462;2022-11-13T16:17:46;13.80;99.90
23681;DHT22;62915;50.832;4.462;2022-11-13T16:20:15;13.70;99.90
23681;DHT22;62915;50.832;4.462;2022-11-13T16:22:41;13.70;99.90
23681;DHT22;62915;50.832;4.462;2022-11-13T16:25:12;13.60;99.90
23681;DHT22;62915;50.832;4.462;2022-11-13T16:27:38;13.50;99.90
23681;DHT22;62915;50.832;4.462;2022-11-13T16:30:04;13.50;99.90
23681;DHT22;62915;50.832;4.462;2022-11-13T16:32:30;13.40;99.90
23681;DHT22;62915;50.832;4.462;2022-11-13T16:34:56;13.30;99.90
23681;DHT22;62915;50.832;4.462;2022-11-13T16:37:22;13.20;99.90
23681;DHT22;62915;50.832;4.462;2022-11-13T16:39:49;13.20;99.90
23681;DHT22;62915;50.832;4.462;2022-11-13T16:42:15;13.10;99.90
23681;DHT22;62915;50.832;4.462;2022-11-13T16:44:42;13.10;99.90
23681;DHT22;62915;50.832;4.462;2022-11-13T16:47:34;13.10;99.90
23681;DHT22;62915;50.832;4.462;2022-11-13T16:50:01;13.00;99.90
23681;DHT22;62915;50.832;4.462;2022-11-13T16:52:26;12.90;99.90
23681;DHT22;62915;50.832;4.462;2022-11-13T16:54:52;12.80;99.90
23681;DHT22;62915;50.832;4.462;2022-11-13T16:57:18;12.80;99.90
23681;DHT22;62915;50.832;4.462;2022-11-13T16:59:44;12.80;99.90
23681;DHT22;62915;50.832;4.462;2022-11-13T17:02:17;12.80;99.90
23681;DHT22;62915;50.832;4.462;2022-11-13T17:04:43;12.60;99.90
23681;DHT22;62915;50.832;4.462;2022-11-13T17:07:13;12.60;99.90
23681;DHT22;62915;50.832;4.462;2022-11-13T17:09:40;12.60;99.90
23681;DHT22;62915;50.832;4.462;2022-11-13T17:12:07;12.50;99.90
23681;DHT22;62915;50.832;4.462;2022-11-13T17:14:33;12.50;99.90
23681;DHT22;62915;50.832;4.462;2022-11-13T17:17:03;12.40;99.90
23681;DHT22;62915;50.832;4.462;2022-11-13T17:19:28;12.40;99.90
23681;DHT22;62915;50.832;4.462;2022-11-13T17:21:54;12.40;99.90